createdAt,value
2017-05-04T00:01:55.353Z,13.50
2017-05-04T00:04:23.736Z,13.50
2017-05-04T00:06:53.177Z,13.50
2017-05-04T00:09:21.931Z,13.50
2017-05-04T00:11:51.116Z,13.50
2017-05-04T00:14:19.426Z,13.50
2017-05-04T00:16:47.811Z,13.50
2017-05-04T00:19:16.196Z,13.50
2017-05-04T00:21:44.536Z,13.40
2017-05-04T00:24:13.644Z,13.40
2017-05-04T00:26:42.746Z,13.40
2017-05-04T00:29:11.817Z,13.40
2017-05-04T00:31:40.150Z,13.40
2017-05-04T00:34:08.574Z,13.40
2017-05-04T00:36:36.950Z,13.50
2017-05-04T00:39:05.281Z,13.50
2017-05-04T00:41:33.618Z,13.50
2017-05-04T00:44:02.690Z,13.60
2017-05-04T00:46:31.024Z,13.60
2017-05-04T00:48:59.412Z,13.60
2017-05-04T00:51:29.494Z,13.60
2017-05-04T00:53:58.564Z,13.60
2017-05-04T00:56:27.048Z,13.60
2017-05-04T00:58:55.425Z,13.60
2017-05-04T01:01:23.797Z,13.50
2017-05-04T01:03:53.043Z,13.50
2017-05-04T01:06:21.383Z,13.50
2017-05-04T01:08:49.765Z,13.50
2017-05-04T01:11:18.111Z,13.50
2017-05-04T01:13:46.514Z,13.50
2017-05-04T01:16:14.845Z,13.50
2017-05-04T01:18:43.242Z,13.50
2017-05-04T01:21:12.411Z,13.50
2017-05-04T01:23:40.808Z,13.30
2017-05-04T01:26:09.228Z,13.30
2017-05-04T01:28:38.233Z,13.30
2017-05-04T01:31:07.677Z,13.30
2017-05-04T01:33:36.003Z,13.30
2017-05-04T01:36:04.383Z,13.30
2017-05-04T01:38:32.743Z,13.30
2017-05-04T01:41:01.749Z,13.20
2017-05-04T01:43:30.076Z,13.10
2017-05-04T01:45:58.780Z,13.10
2017-05-04T01:48:27.141Z,13.10
2017-05-04T01:50:55.498Z,13.00
2017-05-04T01:53:23.833Z,13.00
2017-05-04T01:55:52.171Z,13.10
2017-05-04T01:58:20.505Z,13.10
2017-05-04T02:00:48.838Z,13.00
2017-05-04T02:03:17.243Z,13.00
2017-05-04T02:05:45.583Z,12.90
2017-05-04T02:08:14.615Z,12.90
2017-05-04T02:10:42.968Z,12.90
2017-05-04T02:13:11.280Z,12.90
2017-05-04T02:15:39.649Z,12.80
2017-05-04T02:18:07.997Z,12.70
2017-05-04T02:20:36.325Z,12.70
2017-05-04T02:23:04.705Z,12.70
2017-05-04T02:25:33.470Z,12.70
2017-05-04T02:28:01.811Z,12.60
2017-05-04T02:30:30.728Z,12.60
2017-05-04T02:32:59.738Z,12.60
2017-05-04T02:35:28.088Z,12.50
2017-05-04T02:37:56.438Z,12.50
2017-05-04T02:40:24.848Z,12.60
2017-05-04T02:42:53.201Z,12.50
2017-05-04T02:45:21.566Z,12.50
2017-05-04T02:47:49.998Z,12.30
2017-05-04T02:50:19.197Z,12.20
2017-05-04T02:52:47.605Z,12.20
2017-05-04T02:55:16.309Z,12.20
2017-05-04T02:57:45.487Z,12.10
2017-05-04T03:00:13.958Z,12.00
2017-05-04T03:02:42.353Z,11.90
2017-05-04T03:05:10.723Z,11.90
2017-05-04T03:07:40.098Z,11.80
2017-05-04T03:10:08.472Z,11.70
2017-05-04T03:12:49.006Z,11.70
2017-05-04T03:15:17.523Z,11.70
2017-05-04T03:17:46.782Z,11.70
2017-05-04T03:20:15.217Z,11.70
2017-05-04T03:22:43.604Z,11.70
2017-05-04T03:25:11.922Z,11.60
2017-05-04T03:27:40.331Z,11.50
2017-05-04T03:30:08.680Z,11.40
2017-05-04T03:32:37.831Z,11.30
2017-05-04T03:35:06.587Z,11.20
2017-05-04T03:37:34.956Z,11.00
2017-05-04T03:40:03.301Z,11.00
2017-05-04T03:42:32.390Z,10.80
2017-05-04T03:45:01.583Z,10.80
2017-05-04T03:47:29.947Z,10.80
2017-05-04T03:49:58.313Z,10.70
2017-05-04T03:52:26.700Z,10.60
2017-05-04T03:54:55.644Z,10.50
2017-05-04T03:57:24.186Z,10.50
2017-05-04T03:59:52.552Z,10.50
2017-05-04T04:02:20.929Z,10.50
2017-05-04T04:04:49.309Z,10.40
2017-05-04T04:07:18.496Z,10.30
2017-05-04T04:09:46.921Z,10.30
2017-05-04T04:12:16.026Z,10.20
2017-05-04T04:14:44.488Z,10.10
2017-05-04T04:17:12.912Z,10.20
2017-05-04T04:19:41.268Z,10.20
2017-05-04T04:22:15.258Z,10.20
2017-05-04T04:24:44.373Z,10.10
2017-05-04T04:27:13.461Z,10.10
2017-05-04T04:29:41.841Z,10.00
2017-05-04T04:32:10.936Z,9.90
2017-05-04T04:34:39.313Z,9.90
2017-05-04T04:37:08.411Z,10.00
2017-05-04T04:39:36.812Z,9.90
2017-05-04T04:42:05.174Z,9.90
2017-05-04T04:44:34.329Z,9.90
2017-05-04T04:47:02.637Z,9.90
2017-05-04T04:49:31.067Z,9.90
2017-05-04T04:51:59.366Z,9.90
2017-05-04T04:54:27.767Z,9.90
2017-05-04T04:56:56.246Z,9.90
2017-05-04T04:59:24.772Z,9.90
2017-05-04T05:01:53.216Z,9.90
2017-05-04T05:04:21.589Z,9.90
2017-05-04T05:06:50.775Z,9.90
2017-05-04T05:20:53.262Z,9.90
2017-05-04T05:23:22.345Z,9.90
2017-05-04T05:25:51.687Z,10.00
2017-05-04T05:28:25.202Z,10.00
2017-05-04T05:30:53.669Z,10.00
2017-05-04T05:33:22.455Z,9.90
2017-05-04T05:35:51.316Z,9.80
2017-05-04T05:38:20.795Z,9.90
2017-05-04T05:40:49.276Z,9.80
2017-05-04T05:43:18.500Z,9.80
2017-05-04T05:45:46.969Z,9.80
2017-05-04T05:48:16.336Z,9.80
2017-05-04T05:50:45.332Z,9.80
2017-05-04T05:53:17.391Z,9.90
2017-05-04T05:55:45.943Z,9.80
2017-05-04T05:58:14.431Z,9.70
2017-05-04T06:00:43.485Z,9.70
2017-05-04T06:03:12.644Z,9.70
2017-05-04T06:05:46.948Z,9.70
2017-05-04T06:08:17.362Z,9.80
2017-05-04T06:10:45.943Z,9.80
2017-05-04T06:13:15.386Z,9.80
2017-05-04T06:15:44.548Z,9.80
2017-05-04T06:18:15.118Z,9.80
2017-05-04T06:20:46.157Z,9.70
2017-05-04T06:23:41.521Z,9.70
2017-05-04T06:26:13.636Z,9.70
2017-05-04T06:28:46.220Z,9.60
2017-05-04T06:31:22.215Z,9.60
2017-05-04T06:37:00.049Z,9.60
2017-05-04T06:39:29.435Z,9.70
2017-05-04T06:42:00.479Z,9.70
2017-05-04T06:47:37.540Z,9.70
2017-05-04T06:50:17.944Z,9.80
2017-05-04T06:52:49.995Z,9.80
2017-05-04T06:55:25.092Z,9.90
2017-05-04T06:58:02.176Z,9.80
2017-05-04T07:00:31.327Z,9.80
2017-05-04T07:02:59.676Z,9.80
2017-05-04T07:05:28.753Z,9.80
2017-05-04T07:07:57.171Z,9.70
2017-05-04T07:10:25.578Z,9.70
2017-05-04T07:12:55.229Z,9.60
2017-05-04T07:15:24.409Z,9.60
2017-05-04T07:17:52.993Z,9.50
2017-05-04T07:20:21.631Z,9.50
2017-05-04T07:22:50.911Z,9.60
2017-05-04T07:25:21.559Z,9.50
2017-05-04T07:28:00.058Z,9.50
2017-05-04T07:30:29.275Z,9.50
2017-05-04T07:33:01.732Z,9.50
2017-05-04T07:35:31.075Z,9.50
2017-05-04T07:37:59.536Z,9.50
2017-05-04T07:40:31.700Z,9.50
2017-05-04T07:43:00.478Z,9.50
2017-05-04T07:45:29.044Z,9.40
2017-05-04T07:48:00.473Z,9.50
2017-05-04T07:50:29.074Z,9.40
2017-05-04T07:52:58.213Z,9.40
2017-05-04T07:55:26.616Z,9.40
2017-05-04T07:57:55.044Z,9.40
2017-05-04T08:00:24.210Z,9.40
2017-05-04T08:03:09.160Z,9.40
2017-05-04T08:05:39.327Z,9.40
2017-05-04T08:08:07.771Z,9.40
2017-05-04T08:10:40.396Z,9.40
2017-05-04T08:13:08.807Z,9.30
2017-05-04T08:15:37.330Z,9.40
2017-05-04T08:18:06.844Z,9.40
2017-05-04T08:20:36.600Z,9.50
2017-05-04T08:23:06.110Z,9.50
2017-05-04T08:25:35.432Z,9.50
2017-05-04T08:28:05.011Z,9.60
2017-05-04T08:30:34.438Z,9.70
2017-05-04T08:33:02.949Z,9.70
2017-05-04T08:35:33.334Z,9.70
2017-05-04T08:38:09.148Z,9.70
2017-05-04T08:40:40.223Z,9.70
2017-05-04T08:43:08.654Z,9.70
2017-05-04T08:45:38.674Z,9.80
2017-05-04T08:48:09.905Z,9.80
2017-05-04T08:50:39.821Z,9.90
2017-05-04T08:53:09.330Z,10.00
2017-05-04T08:55:40.701Z,9.90
2017-05-04T08:58:09.903Z,9.90
2017-05-04T09:00:38.920Z,10.00
2017-05-04T09:03:07.350Z,10.00
2017-05-04T09:05:36.622Z,10.00
2017-05-04T09:08:07.116Z,9.90
2017-05-04T09:10:38.521Z,9.90
2017-05-04T09:13:07.047Z,10.00
2017-05-04T09:22:27.783Z,10.20
2017-05-04T09:36:59.627Z,10.20
2017-05-04T09:39:28.815Z,10.30
2017-05-04T09:41:58.083Z,10.30
2017-05-04T09:44:26.871Z,10.30
2017-05-04T09:46:56.206Z,10.20
2017-05-04T09:49:24.684Z,10.30
2017-05-04T09:51:58.173Z,10.40
2017-05-04T09:54:26.638Z,10.50
2017-05-04T09:56:55.936Z,10.60
2017-05-04T09:59:25.047Z,10.70
2017-05-04T10:01:55.004Z,10.70
2017-05-04T10:04:23.462Z,10.80
2017-05-04T10:06:53.253Z,10.80
2017-05-04T10:09:22.193Z,10.80
2017-05-04T10:11:54.432Z,10.70
2017-05-04T10:14:23.718Z,10.80
2017-05-04T10:16:56.095Z,10.80
2017-05-04T10:19:25.919Z,10.70
2017-05-04T10:21:54.403Z,10.70
2017-05-04T10:24:22.845Z,10.60
2017-05-04T10:26:52.148Z,10.60
2017-05-04T10:29:20.623Z,10.60
2017-05-04T10:31:49.784Z,10.60
2017-05-04T10:34:18.181Z,10.60
2017-05-04T10:36:46.542Z,10.50
2017-05-04T10:39:15.067Z,10.50
2017-05-04T10:41:44.348Z,10.50
2017-05-04T10:44:13.693Z,10.60
2017-05-04T10:46:42.155Z,10.80
2017-05-04T10:49:19.005Z,10.70
2017-05-04T10:51:57.262Z,10.80
2017-05-04T10:54:29.727Z,10.70
2017-05-04T10:59:36.128Z,10.80
2017-05-04T11:02:19.272Z,10.70
2017-05-04T11:04:57.355Z,10.70
2017-05-04T11:07:26.850Z,10.70
2017-05-04T11:09:58.186Z,10.70
2017-05-04T11:12:27.962Z,10.50
2017-05-04T11:14:56.349Z,10.60
2017-05-04T11:17:25.798Z,10.60
2017-05-04T11:19:54.334Z,10.60
2017-05-04T11:22:22.790Z,10.60
2017-05-04T11:24:51.232Z,10.60
2017-05-04T11:27:19.606Z,10.60
2017-05-04T11:29:48.830Z,10.60
2017-05-04T11:32:17.350Z,10.60
2017-05-04T11:34:45.837Z,10.60
2017-05-04T11:37:15.584Z,10.50
2017-05-04T11:39:45.371Z,10.60
2017-05-04T11:42:14.866Z,10.50
2017-05-04T11:44:44.074Z,10.50
2017-05-04T11:47:12.654Z,10.50
2017-05-04T11:49:43.388Z,10.60
2017-05-04T11:52:14.216Z,10.50
2017-05-04T11:54:57.437Z,10.60
2017-05-04T11:58:13.731Z,10.60
2017-05-04T12:00:42.326Z,10.60
2017-05-04T12:03:13.495Z,10.60
2017-05-04T12:05:43.791Z,10.60
2017-05-04T12:08:12.208Z,10.60
2017-05-04T12:13:40.300Z,10.50
2017-05-04T12:16:09.434Z,10.60
2017-05-04T12:18:38.024Z,10.60
2017-05-04T12:21:06.500Z,10.60
2017-05-04T12:23:34.881Z,10.70
2017-05-04T12:26:04.313Z,10.70
2017-05-04T12:28:32.818Z,10.70
2017-05-04T12:31:01.269Z,10.70
2017-05-04T12:33:30.707Z,10.80
2017-05-04T12:36:03.391Z,10.80
2017-05-04T12:38:31.789Z,10.80
2017-05-04T12:41:00.235Z,10.90
2017-05-04T12:43:29.529Z,10.90
2017-05-04T12:46:07.517Z,10.90
2017-05-04T12:48:36.851Z,10.90
2017-05-04T12:51:07.250Z,10.80
2017-05-04T12:53:35.716Z,10.90
2017-05-04T12:56:04.152Z,10.90
2017-05-04T12:58:32.507Z,10.90
2017-05-04T13:01:35.089Z,10.80
2017-05-04T13:04:04.428Z,10.80
2017-05-04T13:06:32.914Z,10.90
2017-05-04T13:09:02.174Z,10.80
2017-05-04T13:11:31.669Z,10.90
2017-05-04T13:14:03.583Z,11.00
2017-05-04T13:16:33.091Z,11.00
2017-05-04T13:19:06.262Z,11.00
2017-05-04T13:21:59.446Z,10.90
2017-05-04T13:24:27.910Z,11.00
2017-05-04T13:26:58.147Z,11.00
2017-05-04T13:29:28.132Z,11.10
2017-05-04T13:31:57.386Z,11.10
2017-05-04T13:34:25.907Z,11.10
2017-05-04T13:36:54.485Z,11.00
2017-05-04T13:39:24.077Z,11.00
2017-05-04T13:41:53.849Z,11.00
2017-05-04T13:44:22.316Z,11.00
2017-05-04T13:46:52.589Z,11.00
2017-05-04T13:49:22.911Z,11.00
2017-05-04T13:51:54.880Z,11.00
2017-05-04T13:54:24.590Z,10.90
2017-05-04T13:56:59.436Z,10.90
2017-05-04T14:02:11.661Z,10.80
2017-05-04T14:04:45.669Z,10.80
2017-05-04T14:10:06.658Z,10.80
2017-05-04T14:12:42.628Z,10.80
2017-05-04T14:15:11.360Z,10.90
2017-05-04T14:17:40.607Z,10.80
2017-05-04T14:25:32.358Z,10.90
2017-05-04T14:28:03.742Z,10.90
2017-05-04T14:33:52.495Z,10.70
2017-05-04T14:36:22.565Z,10.70
2017-05-04T14:38:52.496Z,10.80
2017-05-04T14:41:20.913Z,10.70
2017-05-04T14:43:52.027Z,10.70
2017-05-04T14:46:25.546Z,10.70
2017-05-04T14:48:55.319Z,10.80
2017-05-04T14:51:25.757Z,10.80
2017-05-04T14:53:54.315Z,10.90
2017-05-04T14:56:23.605Z,10.90
2017-05-04T14:58:52.395Z,10.90
2017-05-04T15:01:20.817Z,10.90
2017-05-04T15:03:49.793Z,10.90
2017-05-04T15:06:18.169Z,11.00
2017-05-04T15:08:46.540Z,11.00
2017-05-04T15:11:14.896Z,10.90
2017-05-04T15:13:43.348Z,10.90
2017-05-04T15:16:11.728Z,10.90
2017-05-04T15:18:40.935Z,10.90
2017-05-04T15:21:09.464Z,10.80
2017-05-04T15:23:37.927Z,10.80
2017-05-04T15:26:06.303Z,10.90
2017-05-04T15:28:35.517Z,10.90
2017-05-04T15:31:03.895Z,10.80
2017-05-04T15:33:32.301Z,10.80
2017-05-04T15:36:01.521Z,10.80
2017-05-04T15:38:30.675Z,10.80
2017-05-04T15:41:00.604Z,10.80
2017-05-04T15:43:34.241Z,10.80
2017-05-04T15:46:02.605Z,10.80
2017-05-04T15:48:30.983Z,10.70
2017-05-04T15:51:03.447Z,10.70
2017-05-04T15:53:32.757Z,10.80
2017-05-04T15:56:01.151Z,10.70
2017-05-04T15:58:30.481Z,10.70
2017-05-04T16:00:58.885Z,10.70
2017-05-04T16:03:38.439Z,10.80
2017-05-04T16:06:06.876Z,10.80
2017-05-04T16:08:35.930Z,10.90
2017-05-04T16:11:04.302Z,10.90
2017-05-04T16:13:32.758Z,10.90
2017-05-04T16:16:01.171Z,10.80
2017-05-04T16:18:29.798Z,10.70
2017-05-04T16:20:59.981Z,10.80
2017-05-04T16:23:29.157Z,10.80
2017-05-04T16:25:57.546Z,10.80
2017-05-04T16:28:26.122Z,10.80
2017-05-04T16:30:56.140Z,10.80
2017-05-04T16:33:25.353Z,10.70
2017-05-04T16:35:56.947Z,10.60
2017-05-04T16:38:26.249Z,10.60
2017-05-04T16:40:57.691Z,10.70
2017-05-04T16:43:27.157Z,10.70
2017-05-04T16:46:01.720Z,10.60
2017-05-04T16:48:30.103Z,10.60
2017-05-04T16:50:58.676Z,10.60
2017-05-04T16:53:27.356Z,10.60
2017-05-04T16:55:56.553Z,10.60
2017-05-04T16:58:29.268Z,10.60
2017-05-04T17:00:59.069Z,10.70
2017-05-04T17:03:36.496Z,10.70
2017-05-04T17:06:05.310Z,10.70
2017-05-04T17:08:33.929Z,10.70
2017-05-04T17:11:02.308Z,10.80
2017-05-04T17:13:30.671Z,10.80
2017-05-04T17:15:59.167Z,10.80
2017-05-04T17:18:28.517Z,10.80
2017-05-04T17:20:56.931Z,10.80
2017-05-04T17:23:26.434Z,10.70
2017-05-04T17:25:55.329Z,10.70
2017-05-04T17:28:24.589Z,10.70
2017-05-04T17:30:53.003Z,10.70
2017-05-04T17:33:21.396Z,10.70
2017-05-04T17:35:49.764Z,10.70
2017-05-04T17:38:18.439Z,10.70
2017-05-04T17:40:47.587Z,10.60
2017-05-04T17:43:15.985Z,10.60
2017-05-04T17:45:45.554Z,10.60
2017-05-04T17:48:13.972Z,10.70
2017-05-04T17:50:52.567Z,10.70
2017-05-04T17:53:21.081Z,10.70
2017-05-04T17:55:50.501Z,10.70
2017-05-04T17:58:27.581Z,10.70
2017-05-04T18:00:56.757Z,10.70
2017-05-04T18:03:25.108Z,10.70
2017-05-04T18:09:03.731Z,10.60
2017-05-04T18:11:37.190Z,10.60
2017-05-04T18:14:06.315Z,10.60
2017-05-04T18:16:51.429Z,10.70
2017-05-04T18:19:23.468Z,10.70
2017-05-04T18:21:51.937Z,10.60
2017-05-04T18:24:20.399Z,10.70
2017-05-04T18:26:50.011Z,10.70
2017-05-04T18:29:20.478Z,10.70
2017-05-04T18:31:49.066Z,10.60
2017-05-04T18:34:18.263Z,10.60
2017-05-04T18:36:47.293Z,10.70
2017-05-04T18:39:17.313Z,10.60
2017-05-04T18:41:53.792Z,10.70
2017-05-04T18:44:23.804Z,10.70
2017-05-04T18:46:52.281Z,10.70
2017-05-04T18:49:21.474Z,10.70
2017-05-04T18:51:50.775Z,10.80
2017-05-04T18:54:20.382Z,10.70
2017-05-04T18:56:53.086Z,10.80
2017-05-04T18:59:21.651Z,10.80
2017-05-04T19:01:50.897Z,10.80
2017-05-04T19:04:26.076Z,10.80
2017-05-04T19:07:11.263Z,10.80
2017-05-04T19:09:40.585Z,10.80
2017-05-04T20:00:50.568Z,10.70
2017-05-04T20:03:20.464Z,10.70
2017-05-04T20:05:50.475Z,10.70
2017-05-04T20:08:27.115Z,10.70
2017-05-04T20:10:56.641Z,10.80
2017-05-04T20:13:26.657Z,10.80
2017-05-04T20:18:35.519Z,10.80
2017-05-04T20:21:05.497Z,10.80
2017-05-04T20:23:35.965Z,10.80
2017-05-04T20:26:07.855Z,10.80
2017-05-04T20:28:41.848Z,10.90
2017-05-04T20:31:10.253Z,10.90
2017-05-04T20:33:44.050Z,10.90
2017-05-04T20:36:12.500Z,10.90
2017-05-04T20:38:40.980Z,10.90
2017-05-04T20:41:10.186Z,11.00
2017-05-04T20:46:15.703Z,10.90
2017-05-04T20:48:45.147Z,10.90
2017-05-04T20:51:13.524Z,10.90
2017-05-04T20:53:42.001Z,10.90
2017-05-04T20:56:10.544Z,10.90
2017-05-04T20:58:38.932Z,11.00
2017-05-04T21:01:08.222Z,11.00
2017-05-04T21:03:36.545Z,11.00
2017-05-04T21:06:04.941Z,11.00
2017-05-04T21:08:33.366Z,11.00
2017-05-04T21:11:01.904Z,11.00
2017-05-04T21:13:31.244Z,10.90
2017-05-04T21:15:59.730Z,10.90
2017-05-04T21:18:33.142Z,10.90
2017-05-04T21:21:02.697Z,10.90
2017-05-04T21:23:33.103Z,10.90
2017-05-04T21:26:02.313Z,10.90
2017-05-04T21:28:30.817Z,10.80
2017-05-04T21:30:59.220Z,10.80
2017-05-04T21:33:28.303Z,10.80
2017-05-04T21:35:56.877Z,10.90
2017-05-04T21:38:28.664Z,10.90
2017-05-04T21:40:59.696Z,10.90
2017-05-04T21:43:29.313Z,10.90
2017-05-04T21:46:01.699Z,10.90
2017-05-04T21:48:30.443Z,10.90
2017-05-04T21:50:58.891Z,10.90
2017-05-04T21:53:27.423Z,11.00
2017-05-04T21:55:55.967Z,10.90
2017-05-04T21:58:24.402Z,10.90
2017-05-04T22:00:54.662Z,10.90
2017-05-04T22:06:35.554Z,10.80
2017-05-04T22:09:04.749Z,10.80
2017-05-04T22:11:33.663Z,10.80
2017-05-04T22:17:33.241Z,10.80
2017-05-04T22:20:16.553Z,10.80
2017-05-04T22:54:10.451Z,10.80
2017-05-04T22:56:54.737Z,10.80
2017-05-04T22:59:23.660Z,10.80
2017-05-04T23:01:53.910Z,10.80
2017-05-04T23:04:23.356Z,10.70
2017-05-04T23:06:52.400Z,10.60
2017-05-04T23:09:35.017Z,10.60
2017-05-04T23:12:03.619Z,10.70
2017-05-04T23:17:24.606Z,10.70
2017-05-04T23:19:54.650Z,10.60
2017-05-04T23:22:28.531Z,10.60
2017-05-04T23:24:58.494Z,10.60
2017-05-04T23:27:33.733Z,10.60
2017-05-04T23:30:02.188Z,10.50
2017-05-04T23:32:31.445Z,10.50
2017-05-04T23:34:59.797Z,10.50
2017-05-04T23:37:28.197Z,10.40
2017-05-04T23:39:56.849Z,10.40
2017-05-04T23:42:25.205Z,10.40
2017-05-04T23:44:54.350Z,10.40
2017-05-04T23:47:22.762Z,10.40
2017-05-04T23:49:51.240Z,10.40
2017-05-04T23:52:20.372Z,10.40
2017-05-04T23:54:49.498Z,10.40
2017-05-04T23:57:19.876Z,10.50
2017-05-04T23:59:48.995Z,10.40
